createdAt,value
2023-01-27T00:00:17.878Z,1010.59
2023-01-27T00:01:17.865Z,1010.66
2023-01-27T00:02:17.875Z,1010.56
2023-01-27T00:03:18.021Z,1010.55
2023-01-27T00:04:17.838Z,1010.60
2023-01-27T00:05:17.806Z,1010.63
2023-01-27T00:06:17.789Z,1010.59
2023-01-27T00:07:17.776Z,1010.65
2023-01-27T00:08:17.786Z,1010.61
2023-01-27T00:09:17.955Z,1010.66
2023-01-27T00:10:17.736Z,1010.65
2023-01-27T00:11:17.795Z,1010.66
2023-01-27T00:12:17.715Z,1010.68
2023-01-27T00:13:17.704Z,1010.70
2023-01-27T00:14:17.704Z,1010.63
2023-01-27T00:15:17.674Z,1010.70
2023-01-27T00:16:17.712Z,1010.55
2023-01-27T00:17:17.664Z,1010.56
2023-01-27T00:18:17.641Z,1010.64
2023-01-27T00:19:17.634Z,1010.64
2023-01-27T00:20:17.613Z,1010.63
2023-01-27T00:21:17.643Z,1010.63
2023-01-27T00:22:17.582Z,1010.64
2023-01-27T00:23:17.583Z,1010.67
2023-01-27T00:24:17.654Z,1010.72
2023-01-27T00:25:17.551Z,1010.70
2023-01-27T00:26:17.711Z,1010.70
2023-01-27T00:27:17.519Z,1010.73
2023-01-27T00:28:17.511Z,1010.69
2023-01-27T00:29:17.508Z,1010.74
2023-01-27T00:30:17.658Z,1010.71
2023-01-27T00:31:17.558Z,1010.71
2023-01-27T00:32:17.489Z,1010.73
2023-01-27T00:33:17.460Z,1010.73
2023-01-27T00:34:17.430Z,1010.77
2023-01-27T00:35:17.589Z,1010.72
2023-01-27T00:36:17.411Z,1010.78
2023-01-27T00:37:17.405Z,1010.70
2023-01-27T00:38:17.397Z,1010.76
2023-01-27T00:39:17.399Z,1010.76
2023-01-27T00:40:17.546Z,1010.79
2023-01-27T00:41:17.356Z,1010.74
2023-01-27T00:42:17.350Z,1010.70
2023-01-27T00:43:17.331Z,1010.76
2023-01-27T00:44:17.318Z,1010.70
2023-01-27T00:45:17.466Z,1010.73
2023-01-27T00:46:17.285Z,1010.68
2023-01-27T00:47:17.284Z,1010.71
2023-01-27T00:48:17.256Z,1010.71
2023-01-27T00:49:17.405Z,1010.73
2023-01-27T00:50:17.237Z,1010.71
2023-01-27T00:51:17.229Z,1010.72
2023-01-27T00:52:17.216Z,1010.72
2023-01-27T00:53:17.227Z,1010.72
2023-01-27T00:54:17.363Z,1010.67
2023-01-27T00:55:17.173Z,1010.71
2023-01-27T00:56:17.170Z,1010.74
2023-01-27T00:57:17.153Z,1010.71
2023-01-27T00:58:17.137Z,1010.72
2023-01-27T00:59:17.194Z,1010.64
2023-01-27T01:00:17.621Z,1010.69
2023-01-27T01:01:17.096Z,1010.66
2023-01-27T01:02:17.093Z,1010.69
2023-01-27T01:03:17.074Z,1010.67
2023-01-27T01:04:17.065Z,1010.64
2023-01-27T01:05:17.222Z,1010.68
2023-01-27T01:06:17.041Z,1010.71
2023-01-27T01:07:17.038Z,1010.70
2023-01-27T01:08:17.008Z,1010.71
2023-01-27T01:09:16.981Z,1010.77
2023-01-27T01:10:16.993Z,1010.70
2023-01-27T01:11:16.959Z,1010.78
2023-01-27T01:12:16.977Z,1010.84
2023-01-27T01:13:16.939Z,1010.82
2023-01-27T01:14:16.919Z,1010.80
2023-01-27T01:15:16.929Z,1010.88
2023-01-27T01:16:16.936Z,1010.77
2023-01-27T01:17:16.898Z,1010.84
2023-01-27T01:18:16.884Z,1010.81
2023-01-27T01:19:16.875Z,1010.78
2023-01-27T01:20:17.019Z,1010.84
2023-01-27T01:21:17.054Z,1010.89
2023-01-27T01:22:16.831Z,1010.91
2023-01-27T01:23:16.817Z,1010.92
2023-01-27T01:24:16.857Z,1010.93
2023-01-27T01:25:16.787Z,1010.88
2023-01-27T01:26:16.801Z,1010.91
2023-01-27T01:27:16.756Z,1010.91
2023-01-27T01:28:16.796Z,1010.92
2023-01-27T01:29:16.736Z,1010.90
2023-01-27T01:30:16.716Z,1010.99
2023-01-27T01:31:16.770Z,1011.09
2023-01-27T01:32:16.697Z,1011.04
2023-01-27T01:33:16.693Z,1011.04
2023-01-27T01:34:16.674Z,1011.11
2023-01-27T01:35:16.668Z,1011.06
2023-01-27T01:36:16.833Z,1011.07
2023-01-27T01:37:16.636Z,1011.04
2023-01-27T01:38:16.621Z,1011.14
2023-01-27T01:39:16.611Z,1011.07
2023-01-27T01:40:16.620Z,1011.14
2023-01-27T01:41:16.589Z,1011.20
2023-01-27T01:42:16.753Z,1011.16
2023-01-27T01:43:16.549Z,1011.16
2023-01-27T01:44:16.553Z,1011.10
2023-01-27T01:45:16.537Z,1011.20
2023-01-27T01:46:16.612Z,1011.28
2023-01-27T01:47:16.680Z,1011.21
2023-01-27T01:48:16.681Z,1011.22
2023-01-27T01:49:16.481Z,1011.24
2023-01-27T01:50:16.481Z,1011.24
2023-01-27T01:51:16.452Z,1011.23
2023-01-27T01:52:16.625Z,1011.30
2023-01-27T01:53:16.428Z,1011.31
2023-01-27T01:54:16.783Z,1011.32
2023-01-27T01:55:16.408Z,1011.30
2023-01-27T01:56:16.422Z,1011.27
2023-01-27T01:57:16.428Z,1011.17
2023-01-27T01:58:16.367Z,1011.28
2023-01-27T01:59:16.557Z,1011.27
2023-01-27T02:00:16.591Z,1011.29
2023-01-27T02:01:16.408Z,1011.21
2023-01-27T02:02:16.385Z,1011.32
2023-01-27T02:03:16.298Z,1011.30
2023-01-27T02:04:16.467Z,1011.35
2023-01-27T02:05:16.276Z,1011.34
2023-01-27T02:06:16.436Z,1011.34
2023-01-27T02:07:16.248Z,1011.35
2023-01-27T02:08:16.262Z,1011.35
2023-01-27T02:09:16.239Z,1011.36
2023-01-27T02:10:16.232Z,1011.38
2023-01-27T02:11:16.376Z,1011.37
2023-01-27T02:12:16.215Z,1011.33
2023-01-27T02:13:16.176Z,1011.29
2023-01-27T02:14:16.176Z,1011.29
2023-01-27T02:15:16.326Z,1011.30
2023-01-27T02:16:16.205Z,1011.29
2023-01-27T02:17:16.124Z,1011.30
2023-01-27T02:18:16.333Z,1011.24
2023-01-27T02:19:16.114Z,1011.24
2023-01-27T02:20:16.103Z,1011.27
2023-01-27T02:21:16.089Z,1011.25
2023-01-27T02:22:16.065Z,1011.28
2023-01-27T02:23:16.210Z,1011.27
2023-01-27T02:24:16.111Z,1011.30
2023-01-27T02:25:16.021Z,1011.32
2023-01-27T02:26:16.014Z,1011.24
2023-01-27T02:27:16.011Z,1011.25
2023-01-27T02:28:16.172Z,1011.28
2023-01-27T02:29:15.986Z,1011.30
2023-01-27T02:30:15.999Z,1011.29
2023-01-27T02:31:16.026Z,1011.21
2023-01-27T02:32:15.944Z,1011.21
2023-01-27T02:33:16.130Z,1011.22
2023-01-27T02:34:15.908Z,1011.18
2023-01-27T02:35:16.149Z,1011.23
2023-01-27T02:36:15.884Z,1011.29
2023-01-27T02:37:15.881Z,1011.28
2023-01-27T02:38:16.029Z,1011.27
2023-01-27T02:39:15.864Z,1011.28
2023-01-27T02:40:15.828Z,1011.27
2023-01-27T02:41:16.007Z,1011.26
2023-01-27T02:42:15.806Z,1011.26
2023-01-27T02:43:15.815Z,1011.29
2023-01-27T02:44:15.786Z,1011.27
2023-01-27T02:45:16.089Z,1011.31
2023-01-27T02:46:15.828Z,1011.23
2023-01-27T02:47:15.916Z,1011.29
2023-01-27T02:48:15.906Z,1011.26
2023-01-27T02:49:15.725Z,1011.31
2023-01-27T02:50:15.706Z,1011.30
2023-01-27T02:51:15.705Z,1011.33
2023-01-27T02:52:15.871Z,1011.39
2023-01-27T02:53:15.682Z,1011.34
2023-01-27T02:54:15.654Z,1011.34
2023-01-27T02:55:15.825Z,1011.39
2023-01-27T02:56:15.627Z,1011.34
2023-01-27T02:57:15.623Z,1011.33
2023-01-27T02:58:15.614Z,1011.36
2023-01-27T02:59:15.630Z,1011.33
2023-01-27T03:00:15.752Z,1011.26
2023-01-27T03:01:15.621Z,1011.29
2023-01-27T03:02:15.580Z,1011.26
2023-01-27T03:03:15.716Z,1011.12
2023-01-27T03:04:15.535Z,1011.17
2023-01-27T03:05:15.824Z,1011.17
2023-01-27T03:06:15.511Z,1011.24
2023-01-27T03:07:15.501Z,1011.19
2023-01-27T03:08:15.668Z,1011.25
2023-01-27T03:09:15.461Z,1011.19
2023-01-27T03:10:15.449Z,1011.19
2023-01-27T03:11:15.479Z,1011.19
2023-01-27T03:12:15.610Z,1011.13
2023-01-27T03:13:15.417Z,1011.20
2023-01-27T03:14:15.571Z,1011.22
2023-01-27T03:15:15.834Z,1011.20
2023-01-27T03:16:15.385Z,1011.22
2023-01-27T03:17:15.370Z,1011.24
2023-01-27T03:18:15.349Z,1011.14
2023-01-27T03:19:15.541Z,1011.23
2023-01-27T03:20:15.339Z,1011.15
2023-01-27T03:21:15.309Z,1011.11
2023-01-27T03:22:15.304Z,1011.13
2023-01-27T03:23:15.288Z,1011.14
2023-01-27T03:24:15.344Z,1011.09
2023-01-27T03:25:15.833Z,1011.07
2023-01-27T03:26:15.247Z,1011.15
2023-01-27T03:27:15.413Z,1011.20
2023-01-27T03:28:15.227Z,1011.21
2023-01-27T03:29:15.205Z,1011.23
2023-01-27T03:30:15.202Z,1011.13
2023-01-27T03:31:15.260Z,1011.18
2023-01-27T03:32:15.509Z,1011.14
2023-01-27T03:33:15.164Z,1011.22
2023-01-27T03:34:15.154Z,1011.19
2023-01-27T03:35:15.350Z,1011.21
2023-01-27T03:36:15.136Z,1011.15
2023-01-27T03:37:15.295Z,1011.12
2023-01-27T03:38:15.102Z,1011.17
2023-01-27T03:39:15.094Z,1011.22
2023-01-27T03:40:15.092Z,1011.20
2023-01-27T03:41:15.125Z,1011.20
2023-01-27T03:42:15.248Z,1011.22
2023-01-27T03:43:15.031Z,1011.19
2023-01-27T03:44:15.042Z,1011.26
2023-01-27T03:45:15.225Z,1011.21
2023-01-27T03:46:15.074Z,1011.24
2023-01-27T03:47:15.033Z,1011.30
2023-01-27T03:48:15.160Z,1011.27
2023-01-27T03:49:14.965Z,1011.28
2023-01-27T03:50:14.950Z,1011.27
2023-01-27T03:51:14.945Z,1011.32
2023-01-27T03:52:14.919Z,1011.31
2023-01-27T03:53:15.079Z,1011.31
2023-01-27T03:54:14.890Z,1011.27
2023-01-27T03:55:15.323Z,1011.29
2023-01-27T03:56:14.878Z,1011.26
2023-01-27T03:57:14.858Z,1011.22
2023-01-27T03:58:15.019Z,1011.23
2023-01-27T03:59:14.876Z,1011.25
2023-01-27T04:00:14.837Z,1011.27
2023-01-27T04:01:14.892Z,1011.21
2023-01-27T04:02:14.797Z,1011.19
2023-01-27T04:03:14.787Z,1011.28
2023-01-27T04:04:14.767Z,1011.23
2023-01-27T04:05:15.371Z,1011.23
2023-01-27T04:06:14.770Z,1011.26
2023-01-27T04:07:14.736Z,1011.23
2023-01-27T04:08:14.720Z,1011.27
2023-01-27T04:09:14.735Z,1011.18
2023-01-27T04:10:14.863Z,1011.26
2023-01-27T04:11:14.714Z,1011.19
2023-01-27T04:12:14.663Z,1011.19
2023-01-27T04:13:14.843Z,1011.23
2023-01-27T04:14:14.659Z,1011.22
2023-01-27T04:15:15.041Z,1011.22
2023-01-27T04:16:14.653Z,1011.21
2023-01-27T04:17:14.903Z,1011.22
2023-01-27T04:18:14.594Z,1011.29
2023-01-27T04:19:14.582Z,1011.22
2023-01-27T04:20:14.746Z,1011.22
2023-01-27T04:21:14.552Z,1011.23
2023-01-27T04:22:14.713Z,1011.19
2023-01-27T04:23:14.535Z,1011.16
2023-01-27T04:24:14.567Z,1011.19
2023-01-27T04:25:15.122Z,1011.18
2023-01-27T04:26:14.496Z,1011.21
2023-01-27T04:27:14.711Z,1011.21
2023-01-27T04:28:14.470Z,1011.22
2023-01-27T04:29:14.466Z,1011.17
2023-01-27T04:30:14.439Z,1011.26
2023-01-27T04:31:14.556Z,1011.24
2023-01-27T04:32:14.418Z,1011.22
2023-01-27T04:33:14.427Z,1011.29
2023-01-27T04:34:14.389Z,1011.32
2023-01-27T04:35:14.992Z,1011.28
2023-01-27T04:36:14.361Z,1011.32
2023-01-27T04:37:14.395Z,1011.28
2023-01-27T04:38:14.341Z,1011.27
2023-01-27T04:39:14.330Z,1011.24
2023-01-27T04:40:14.489Z,1011.29
2023-01-27T04:41:14.308Z,1011.37
2023-01-27T04:42:14.296Z,1011.32
2023-01-27T04:43:14.296Z,1011.36
2023-01-27T04:44:14.260Z,1011.36
2023-01-27T04:45:14.823Z,1011.32
2023-01-27T04:46:14.246Z,1011.33
2023-01-27T04:47:14.228Z,1011.40
2023-01-27T04:48:14.226Z,1011.33
2023-01-27T04:49:14.375Z,1011.35
2023-01-27T04:50:14.195Z,1011.31
2023-01-27T04:51:14.176Z,1011.31
2023-01-27T04:52:14.184Z,1011.37
2023-01-27T04:53:14.156Z,1011.36
2023-01-27T04:54:14.313Z,1011.34
2023-01-27T04:55:14.487Z,1011.40
2023-01-27T04:56:14.132Z,1011.40
2023-01-27T04:57:14.106Z,1011.38
2023-01-27T04:58:14.114Z,1011.40
2023-01-27T04:59:14.074Z,1011.44
2023-01-27T05:00:16.520Z,1011.42
2023-01-27T05:01:14.223Z,1011.48
2023-01-27T05:02:14.063Z,1011.52
2023-01-27T05:03:14.101Z,1011.58
2023-01-27T05:04:14.001Z,1011.54
2023-01-27T05:05:14.296Z,1011.55
2023-01-27T05:06:14.166Z,1011.54
2023-01-27T05:07:13.981Z,1011.52
2023-01-27T05:08:13.961Z,1011.50
2023-01-27T05:09:13.961Z,1011.58
2023-01-27T05:10:13.929Z,1011.53
2023-01-27T05:11:14.117Z,1011.58
2023-01-27T05:12:13.899Z,1011.56
2023-01-27T05:13:13.899Z,1011.60
2023-01-27T05:14:13.887Z,1011.62
2023-01-27T05:15:14.227Z,1011.63
2023-01-27T05:16:13.872Z,1011.57
2023-01-27T05:17:13.851Z,1011.55
2023-01-27T05:18:13.848Z,1011.57
2023-01-27T05:19:13.835Z,1011.60
2023-01-27T05:20:13.805Z,1011.61
2023-01-27T05:21:14.100Z,1011.58
2023-01-27T05:22:13.779Z,1011.54
2023-01-27T05:23:13.783Z,1011.63
2023-01-27T05:24:13.846Z,1011.56
2023-01-27T05:25:14.070Z,1011.52
2023-01-27T05:26:13.908Z,1011.54
2023-01-27T05:27:13.931Z,1011.60
2023-01-27T05:28:13.718Z,1011.55
2023-01-27T05:29:13.727Z,1011.59
2023-01-27T05:30:13.684Z,1011.52
2023-01-27T05:31:13.945Z,1011.60
2023-01-27T05:32:13.671Z,1011.60
2023-01-27T05:33:13.654Z,1011.55
2023-01-27T05:34:13.666Z,1011.63
2023-01-27T05:35:13.991Z,1011.65
2023-01-27T05:36:13.609Z,1011.66
2023-01-27T05:37:14.160Z,1011.60
2023-01-27T05:38:13.764Z,1011.69
2023-01-27T05:39:13.735Z,1011.64
2023-01-27T05:40:13.565Z,1011.62
2023-01-27T05:41:13.547Z,1011.63
2023-01-27T05:42:13.525Z,1011.67
2023-01-27T05:43:13.526Z,1011.64
2023-01-27T05:44:13.687Z,1011.67
2023-01-27T05:45:13.841Z,1011.64
2023-01-27T05:46:13.534Z,1011.64
2023-01-27T05:47:13.480Z,1011.70
2023-01-27T05:48:13.464Z,1011.76
2023-01-27T05:49:13.456Z,1011.67
2023-01-27T05:50:13.442Z,1011.77
2023-01-27T05:51:15.069Z,1011.72
2023-01-27T05:52:13.402Z,1011.72
2023-01-27T05:53:13.399Z,1011.73
2023-01-27T05:54:13.400Z,1011.70
2023-01-27T05:55:13.652Z,1011.76
2023-01-27T05:56:13.521Z,1011.72
2023-01-27T05:57:13.369Z,1011.71
2023-01-27T05:58:13.323Z,1011.72
2023-01-27T05:59:13.319Z,1011.72
2023-01-27T06:00:13.309Z,1011.73
2023-01-27T06:01:13.287Z,1011.76
2023-01-27T06:02:13.317Z,1011.71
2023-01-27T06:03:13.318Z,1011.78
2023-01-27T06:04:13.252Z,1011.65
2023-01-27T06:05:13.441Z,1011.74
2023-01-27T06:06:13.216Z,1011.71
2023-01-27T06:07:13.251Z,1011.66
2023-01-27T06:08:13.208Z,1011.71
2023-01-27T06:09:13.205Z,1011.77
2023-01-27T06:10:13.177Z,1011.69
2023-01-27T06:11:13.176Z,1011.70
2023-01-27T06:12:13.305Z,1011.71
2023-01-27T06:13:13.157Z,1011.64
2023-01-27T06:14:13.134Z,1011.71
2023-01-27T06:15:13.370Z,1011.71
2023-01-27T06:16:13.131Z,1011.61
2023-01-27T06:17:13.112Z,1011.69
2023-01-27T06:18:13.116Z,1011.65
2023-01-27T06:19:13.071Z,1011.69
2023-01-27T06:20:13.045Z,1011.71
2023-01-27T06:21:13.048Z,1011.69
2023-01-27T06:22:13.063Z,1011.64
2023-01-27T06:23:13.066Z,1011.60
2023-01-27T06:24:13.854Z,1011.71
2023-01-27T06:25:13.387Z,1011.67
2023-01-27T06:26:13.184Z,1011.67
2023-01-27T06:27:12.961Z,1011.64
2023-01-27T06:28:27.796Z,1011.67
2023-01-27T06:29:13.944Z,1011.68
2023-01-27T06:30:12.929Z,1011.69
2023-01-27T06:31:12.975Z,1011.67
2023-01-27T06:32:12.901Z,1011.69
2023-01-27T06:33:14.827Z,1011.73
2023-01-27T06:34:12.890Z,1011.77
2023-01-27T06:35:13.148Z,1011.82
2023-01-27T06:36:12.850Z,1011.83
2023-01-27T06:37:12.828Z,1011.75
2023-01-27T06:38:12.816Z,1011.89
2023-01-27T06:39:12.986Z,1011.90
2023-01-27T06:40:13.177Z,1011.95
2023-01-27T06:41:12.779Z,1011.95
2023-01-27T06:42:12.765Z,1011.91
2023-01-27T06:43:12.759Z,1011.97
2023-01-27T06:44:12.829Z,1012.06
2023-01-27T06:45:12.756Z,1011.97
2023-01-27T06:46:12.788Z,1012.07
2023-01-27T06:47:12.706Z,1011.93
2023-01-27T06:48:12.696Z,1012.08
2023-01-27T06:49:12.685Z,1012.05
2023-01-27T06:50:13.298Z,1012.05
2023-01-27T06:51:12.884Z,1012.02
2023-01-27T06:52:12.667Z,1012.10
2023-01-27T06:53:12.639Z,1012.17
2023-01-27T06:54:12.614Z,1012.21
2023-01-27T06:55:12.604Z,1012.12
2023-01-27T06:56:12.777Z,1012.19
2023-01-27T06:57:12.607Z,1012.18
2023-01-27T06:58:12.573Z,1012.16
2023-01-27T06:59:12.543Z,1012.13
2023-01-27T07:00:12.787Z,1012.28
2023-01-27T07:01:12.645Z,1012.21
2023-01-27T07:02:12.566Z,1012.19
2023-01-27T07:03:12.501Z,1012.21
2023-01-27T07:04:12.493Z,1012.22
2023-01-27T07:05:12.492Z,1012.22
2023-01-27T07:06:12.652Z,1012.31
2023-01-27T07:07:12.489Z,1012.32
2023-01-27T07:08:12.443Z,1012.27
2023-01-27T07:09:12.420Z,1012.34
2023-01-27T07:10:12.681Z,1012.30
2023-01-27T07:11:12.408Z,1012.29
2023-01-27T07:12:12.403Z,1012.23
2023-01-27T07:13:12.417Z,1012.29
2023-01-27T07:14:12.359Z,1012.30
2023-01-27T07:15:12.362Z,1012.37
2023-01-27T07:16:12.356Z,1012.34
2023-01-27T07:17:12.328Z,1012.35
2023-01-27T07:18:12.342Z,1012.38
2023-01-27T07:19:12.471Z,1012.37
2023-01-27T07:20:12.649Z,1012.37
2023-01-27T07:21:12.287Z,1012.41
2023-01-27T07:22:12.264Z,1012.38
2023-01-27T07:23:12.434Z,1012.35
2023-01-27T07:24:12.268Z,1012.37
2023-01-27T07:25:12.217Z,1012.38
2023-01-27T07:26:24.324Z,1012.42
2023-01-27T07:27:13.189Z,1012.40
2023-01-27T07:28:12.361Z,1012.38
2023-01-27T07:29:12.184Z,1012.41
2023-01-27T07:30:12.573Z,1012.39
2023-01-27T07:31:12.268Z,1012.34
2023-01-27T07:32:12.136Z,1012.39
2023-01-27T07:33:12.151Z,1012.43
2023-01-27T07:34:12.118Z,1012.43
2023-01-27T07:35:12.094Z,1012.46
2023-01-27T07:36:12.274Z,1012.47
2023-01-27T07:37:12.072Z,1012.43
2023-01-27T07:38:12.065Z,1012.45
2023-01-27T07:39:12.212Z,1012.51
2023-01-27T07:40:12.493Z,1012.46
2023-01-27T07:41:12.023Z,1012.44
2023-01-27T07:42:12.014Z,1012.49
2023-01-27T07:43:12.020Z,1012.43
2023-01-27T07:44:11.980Z,1012.46
2023-01-27T07:45:11.960Z,1012.48
2023-01-27T07:46:11.987Z,1012.41
2023-01-27T07:47:11.957Z,1012.43
2023-01-27T07:48:11.920Z,1012.47
2023-01-27T07:49:12.092Z,1012.49
2023-01-27T07:50:12.163Z,1012.47
2023-01-27T07:51:11.921Z,1012.55
2023-01-27T07:52:11.878Z,1012.51
2023-01-27T07:53:11.881Z,1012.49
2023-01-27T07:54:12.022Z,1012.52
2023-01-27T07:55:12.338Z,1012.54
2023-01-27T07:56:11.829Z,1012.47
2023-01-27T07:57:11.810Z,1012.50
2023-01-27T07:58:11.789Z,1012.53
2023-01-27T07:59:11.983Z,1012.52
2023-01-27T08:00:12.126Z,1012.57
2023-01-27T08:01:11.781Z,1012.53
2023-01-27T08:02:11.748Z,1012.54
2023-01-27T08:03:12.001Z,1012.61
2023-01-27T08:04:11.716Z,1012.59
2023-01-27T08:05:11.714Z,1012.54
2023-01-27T08:06:11.735Z,1012.54
2023-01-27T08:07:11.693Z,1012.63
2023-01-27T08:08:11.686Z,1012.54
2023-01-27T08:09:11.672Z,1012.62
2023-01-27T08:10:12.068Z,1012.58
2023-01-27T08:11:11.634Z,1012.54
2023-01-27T08:12:11.645Z,1012.55
2023-01-27T08:13:11.662Z,1012.54
2023-01-27T08:14:11.605Z,1012.56
2023-01-27T08:15:11.614Z,1012.55
2023-01-27T08:16:11.603Z,1012.53
2023-01-27T08:17:11.572Z,1012.51
2023-01-27T08:18:11.559Z,1012.53
2023-01-27T08:19:11.546Z,1012.59
2023-01-27T08:20:12.173Z,1012.54
2023-01-27T08:21:11.503Z,1012.52
2023-01-27T08:22:11.492Z,1012.54
2023-01-27T08:23:11.494Z,1012.57
2023-01-27T08:24:11.486Z,1012.50
2023-01-27T08:25:11.471Z,1012.53
2023-01-27T08:26:11.441Z,1012.51
2023-01-27T08:27:11.432Z,1012.54
2023-01-27T08:28:11.423Z,1012.58
2023-01-27T08:29:11.422Z,1012.62
2023-01-27T08:30:11.820Z,1012.65
2023-01-27T08:31:11.387Z,1012.69
2023-01-27T08:32:12.862Z,1012.61
2023-01-27T08:33:11.360Z,1012.67
2023-01-27T08:34:11.539Z,1012.68
2023-01-27T08:35:11.353Z,1012.68
2023-01-27T08:36:11.361Z,1012.73
2023-01-27T08:37:11.307Z,1012.70
2023-01-27T08:38:11.296Z,1012.62
2023-01-27T08:39:11.292Z,1012.74
2023-01-27T08:40:11.727Z,1012.63
2023-01-27T08:41:11.269Z,1012.61
2023-01-27T08:42:11.309Z,1012.65
2023-01-27T08:43:11.236Z,1012.62
2023-01-27T08:44:11.216Z,1012.66
2023-01-27T08:45:11.225Z,1012.72
2023-01-27T08:46:11.245Z,1012.69
2023-01-27T08:47:11.176Z,1012.69
2023-01-27T08:48:12.374Z,1012.68
2023-01-27T08:49:11.159Z,1012.72
2023-01-27T08:50:11.377Z,1012.76
2023-01-27T08:51:11.172Z,1012.74
2023-01-27T08:52:11.219Z,1012.76
2023-01-27T08:53:11.119Z,1012.75
2023-01-27T08:54:11.087Z,1012.82
2023-01-27T08:55:11.090Z,1012.77
2023-01-27T08:56:11.057Z,1012.76
2023-01-27T08:57:11.067Z,1012.81
2023-01-27T08:58:11.064Z,1012.84
2023-01-27T08:59:11.205Z,1012.78
2023-01-27T09:00:11.279Z,1012.80
2023-01-27T09:01:11.029Z,1012.83
2023-01-27T09:02:10.990Z,1012.80
2023-01-27T09:03:10.994Z,1012.85
2023-01-27T09:04:11.168Z,1012.84
2023-01-27T09:05:10.970Z,1012.85
2023-01-27T09:06:10.946Z,1012.89
2023-01-27T09:07:10.925Z,1012.86
2023-01-27T09:08:10.950Z,1012.89
2023-01-27T09:09:12.007Z,1012.89
2023-01-27T09:10:15.407Z,1012.95
2023-01-27T09:11:10.877Z,1012.92
2023-01-27T09:12:10.867Z,1012.96
2023-01-27T09:13:10.860Z,1012.96
2023-01-27T09:14:10.822Z,1013.02
2023-01-27T09:15:10.829Z,1012.97
2023-01-27T09:16:10.848Z,1012.96
2023-01-27T09:17:10.811Z,1013.02
2023-01-27T09:18:10.801Z,1013.05
2023-01-27T09:19:10.781Z,1013.03
2023-01-27T09:20:10.880Z,1013.07
2023-01-27T09:21:10.754Z,1013.01
2023-01-27T09:22:10.742Z,1013.10
2023-01-27T09:23:10.734Z,1013.12
2023-01-27T09:24:10.767Z,1013.20
2023-01-27T09:25:10.866Z,1013.24
2023-01-27T09:26:10.856Z,1013.22
2023-01-27T09:27:10.689Z,1013.13
2023-01-27T09:28:10.659Z,1013.19
2023-01-27T09:29:10.649Z,1013.15
2023-01-27T09:30:10.817Z,1013.15
2023-01-27T09:31:10.911Z,1013.15
2023-01-27T09:32:10.705Z,1013.18
2023-01-27T09:33:10.584Z,1013.22
2023-01-27T09:34:10.586Z,1013.23
2023-01-27T09:35:10.780Z,1013.30
2023-01-27T09:36:10.557Z,1013.15
2023-01-27T09:37:10.579Z,1013.20
2023-01-27T09:38:10.524Z,1013.16
2023-01-27T09:39:10.521Z,1013.27
2023-01-27T09:40:10.512Z,1013.23
2023-01-27T09:41:10.488Z,1013.21
2023-01-27T09:42:12.082Z,1013.27
2023-01-27T09:43:10.461Z,1013.22
2023-01-27T09:44:10.451Z,1013.33
2023-01-27T09:45:10.503Z,1013.36
2023-01-27T09:46:10.476Z,1013.29
2023-01-27T09:47:10.418Z,1013.32
2023-01-27T09:48:10.434Z,1013.31
2023-01-27T09:49:10.380Z,1013.38
2023-01-27T09:50:10.393Z,1013.31
2023-01-27T09:51:10.358Z,1013.29
2023-01-27T09:52:10.410Z,1013.27
2023-01-27T09:53:10.332Z,1013.38
2023-01-27T09:54:10.320Z,1013.41
2023-01-27T09:55:11.216Z,1013.38
2023-01-27T09:56:12.244Z,1013.34
2023-01-27T09:57:10.278Z,1013.41
2023-01-27T09:58:10.291Z,1013.41
2023-01-27T09:59:10.257Z,1013.39
2023-01-27T10:00:10.281Z,1013.39
2023-01-27T10:01:10.272Z,1013.36
2023-01-27T10:02:10.225Z,1013.40
2023-01-27T10:03:10.225Z,1013.34
2023-01-27T10:04:10.198Z,1013.39
2023-01-27T10:05:10.179Z,1013.42
2023-01-27T10:06:10.184Z,1013.35
2023-01-27T10:07:10.171Z,1013.32
2023-01-27T10:08:10.155Z,1013.33
2023-01-27T10:09:10.375Z,1013.36
2023-01-27T10:10:10.142Z,1013.34
2023-01-27T10:11:10.110Z,1013.38
2023-01-27T10:12:10.097Z,1013.42
2023-01-27T10:13:10.095Z,1013.46
2023-01-27T10:14:10.095Z,1013.41
2023-01-27T10:15:10.046Z,1013.37
2023-01-27T10:16:10.080Z,1013.42
2023-01-27T10:17:10.044Z,1013.42
2023-01-27T10:18:10.043Z,1013.48
2023-01-27T10:19:10.004Z,1013.44
2023-01-27T10:20:10.016Z,1013.44
2023-01-27T10:21:09.971Z,1013.44
2023-01-27T10:22:09.979Z,1013.52
2023-01-27T10:23:09.941Z,1013.40
2023-01-27T10:24:10.146Z,1013.42
2023-01-27T10:25:09.932Z,1013.38
2023-01-27T10:26:09.942Z,1013.34
2023-01-27T10:27:09.941Z,1013.32
2023-01-27T10:28:09.889Z,1013.38
2023-01-27T10:29:10.051Z,1013.39
2023-01-27T10:30:09.869Z,1013.35
2023-01-27T10:31:09.918Z,1013.35
2023-01-27T10:32:09.843Z,1013.34
2023-01-27T10:33:09.820Z,1013.40
2023-01-27T10:34:09.820Z,1013.38
2023-01-27T10:35:09.793Z,1013.30
2023-01-27T10:36:09.780Z,1013.30
2023-01-27T10:37:09.798Z,1013.39
2023-01-27T10:38:09.772Z,1013.33
2023-01-27T10:39:09.937Z,1013.39
2023-01-27T10:40:09.726Z,1013.36
2023-01-27T10:41:09.717Z,1013.35
2023-01-27T10:42:09.746Z,1013.34
2023-01-27T10:43:09.697Z,1013.33
2023-01-27T10:44:09.707Z,1013.30
2023-01-27T10:45:09.867Z,1013.35
2023-01-27T10:46:09.659Z,1013.43
2023-01-27T10:47:09.655Z,1013.36
2023-01-27T10:48:09.635Z,1013.38
2023-01-27T10:49:09.640Z,1013.34
2023-01-27T10:50:09.803Z,1013.39
2023-01-27T10:51:09.814Z,1013.41
2023-01-27T10:52:09.627Z,1013.33
2023-01-27T10:53:09.588Z,1013.44
2023-01-27T10:54:09.568Z,1013.36
2023-01-27T10:55:09.544Z,1013.38
2023-01-27T10:56:09.571Z,1013.39
2023-01-27T10:57:09.564Z,1013.32
2023-01-27T10:58:09.525Z,1013.36
2023-01-27T10:59:09.492Z,1013.34
2023-01-27T11:00:41.862Z,1013.38
2023-01-27T11:01:20.755Z,1013.33
2023-01-27T11:02:10.491Z,1013.39
2023-01-27T11:03:09.649Z,1013.30
2023-01-27T11:04:09.458Z,1013.38
2023-01-27T11:05:09.428Z,1013.31
2023-01-27T11:06:09.401Z,1013.37
2023-01-27T11:07:09.493Z,1013.34
2023-01-27T11:08:09.490Z,1013.32
2023-01-27T11:09:09.513Z,1013.41
2023-01-27T11:10:09.430Z,1013.24
2023-01-27T11:11:09.421Z,1013.42
2023-01-27T11:12:09.349Z,1013.33
2023-01-27T11:13:09.494Z,1013.28
2023-01-27T11:14:09.486Z,1013.25
2023-01-27T11:15:09.310Z,1013.29
2023-01-27T11:16:09.304Z,1013.25
2023-01-27T11:17:09.277Z,1013.32
2023-01-27T11:18:09.437Z,1013.31
2023-01-27T11:19:09.407Z,1013.26
2023-01-27T11:20:09.220Z,1013.30
2023-01-27T11:21:09.400Z,1013.19
2023-01-27T11:22:09.247Z,1013.27
2023-01-27T11:23:09.204Z,1013.29
2023-01-27T11:24:09.396Z,1013.20
2023-01-27T11:25:09.175Z,1013.25
2023-01-27T11:26:09.145Z,1013.30
2023-01-27T11:27:09.136Z,1013.22
2023-01-27T11:28:09.127Z,1013.27
2023-01-27T11:29:09.298Z,1013.24
2023-01-27T11:30:09.163Z,1013.22
2023-01-27T11:31:09.139Z,1013.21
2023-01-27T11:32:09.101Z,1013.22
2023-01-27T11:33:09.069Z,1013.24
2023-01-27T11:34:09.219Z,1013.20
2023-01-27T11:35:09.217Z,1013.20
2023-01-27T11:36:09.015Z,1013.14
2023-01-27T11:37:09.006Z,1013.19
2023-01-27T11:38:15.365Z,1013.24
2023-01-27T11:39:09.984Z,1013.24
2023-01-27T11:40:09.145Z,1013.23
2023-01-27T11:41:08.986Z,1013.22
2023-01-27T11:42:08.945Z,1013.21
2023-01-27T11:43:08.934Z,1013.24
2023-01-27T11:44:08.923Z,1013.14
2023-01-27T11:45:09.101Z,1013.20
2023-01-27T11:46:08.945Z,1013.16
2023-01-27T11:47:08.909Z,1013.21
2023-01-27T11:48:08.870Z,1013.22
2023-01-27T11:49:08.851Z,1013.23
2023-01-27T11:50:09.014Z,1013.19
2023-01-27T11:51:08.828Z,1013.20
2023-01-27T11:52:08.870Z,1013.20
2023-01-27T11:53:08.800Z,1013.21
2023-01-27T11:54:08.801Z,1013.16
2023-01-27T11:55:08.788Z,1013.17
2023-01-27T11:56:08.766Z,1013.18
2023-01-27T11:57:08.930Z,1013.14
2023-01-27T11:58:08.737Z,1013.15
2023-01-27T11:59:08.734Z,1013.09
2023-01-27T12:00:08.709Z,1013.10
2023-01-27T12:01:08.698Z,1013.14
2023-01-27T12:02:08.721Z,1013.05
2023-01-27T12:03:08.677Z,1013.13
2023-01-27T12:04:08.669Z,1013.15
2023-01-27T12:05:08.647Z,1013.01